sensor_id;sensor_type;location;lat;lon;timestamp;temperature;humidity
44990;DHT22;30723;51.206;3.326;2022-10-16T00:00:53;14.20;99.90
44990;DHT22;30723;51.206;3.326;2022-10-16T00:03:18;14.10;99.90
44990;DHT22;30723;51.206;3.326;2022-10-16T00:05:44;14.10;99.90
44990;DHT22;30723;51.206;3.326;2022-10-16T00:08:11;14.00;99.90
44990;DHT22;30723;51.206;3.326;2022-10-16T00:10:37;14.00;99.90
44990;DHT22;30723;51.206;3.326;2022-10-16T00:13:04;14.00;99.90
44990;DHT22;30723;51.206;3.326;2022-10-16T00:15:32;14.00;99.90
44990;DHT22;30723;51.206;3.326;2022-10-16T00:17:58;14.10;99.90
44990;DHT22;30723;51.206;3.326;2022-10-16T00:20:24;14.10;99.90
44990;DHT22;30723;51.206;3.326;2022-10-16T00:22:49;14.20;99.90
44990;DHT22;30723;51.206;3.326;2022-10-16T00:25:15;14.20;99.90
44990;DHT22;30723;51.206;3.326;2022-10-16T00:27:41;14.20;99.90
44990;DHT22;30723;51.206;3.326;2022-10-16T00:30:07;14.20;99.90
44990;DHT22;30723;51.206;3.326;2022-10-16T00:32:33;14.30;99.90
44990;DHT22;30723;51.206;3.326;2022-10-16T00:34:59;14.30;99.90
44990;DHT22;30723;51.206;3.326;2022-10-16T00:37:25;14.40;99.90
44990;DHT22;30723;51.206;3.326;2022-10-16T00:39:51;14.40;99.90
44990;DHT22;30723;51.206;3.326;2022-10-16T00:42:17;14.40;99.90
44990;DHT22;30723;51.206;3.326;2022-10-16T00:44:50;14.50;99.90
44990;DHT22;30723;51.206;3.326;2022-10-16T00:47:29;14.50;99.90
44990;DHT22;30723;51.206;3.326;2022-10-16T00:52:37;14.50;99.90
44990;DHT22;30723;51.206;3.326;2022-10-16T00:55:06;14.50;99.90
44990;DHT22;30723;51.206;3.326;2022-10-16T00:57:32;14.40;99.90
44990;DHT22;30723;51.206;3.326;2022-10-16T00:59:58;14.40;99.90
44990;DHT22;30723;51.206;3.326;2022-10-16T01:02:24;14.30;99.90
44990;DHT22;30723;51.206;3.326;2022-10-16T01:04:52;14.30;99.90
44990;DHT22;30723;51.206;3.326;2022-10-16T01:13:03;14.30;99.90
44990;DHT22;30723;51.206;3.326;2022-10-16T01:15:37;14.30;99.90
44990;DHT22;30723;51.206;3.326;2022-10-16T01:21:02;14.30;99.90
44990;DHT22;30723;51.206;3.326;2022-10-16T01:29:41;14.20;99.90
44990;DHT22;30723;51.206;3.326;2022-10-16T01:35:08;14.30;99.90
44990;DHT22;30723;51.206;3.326;2022-10-16T01:40:12;14.30;99.90
44990;DHT22;30723;51.206;3.326;2022-10-16T01:42:42;14.30;99.90
44990;DHT22;30723;51.206;3.326;2022-10-16T01:45:12;14.20;99.90
44990;DHT22;30723;51.206;3.326;2022-10-16T01:47:39;14.20;99.90
44990;DHT22;30723;51.206;3.326;2022-10-16T01:50:07;14.30;99.90
44990;DHT22;30723;51.206;3.326;2022-10-16T01:52:35;14.20;99.90
44990;DHT22;30723;51.206;3.326;2022-10-16T01:55:04;14.20;99.90
44990;DHT22;30723;51.206;3.326;2022-10-16T01:57:32;14.30;99.90
44990;DHT22;30723;51.206;3.326;2022-10-16T02:00:06;14.30;99.90
44990;DHT22;30723;51.206;3.326;2022-10-16T02:02:33;14.20;99.90
44990;DHT22;30723;51.206;3.326;2022-10-16T02:07:39;14.20;99.90
44990;DHT22;30723;51.206;3.326;2022-10-16T02:10:08;14.10;99.90
44990;DHT22;30723;51.206;3.326;2022-10-16T02:12:35;14.10;99.90
44990;DHT22;30723;51.206;3.326;2022-10-16T02:15:02;14.10;99.90
44990;DHT22;30723;51.206;3.326;2022-10-16T02:17:28;14.10;99.90
44990;DHT22;30723;51.206;3.326;2022-10-16T02:19:55;14.10;99.90
44990;DHT22;30723;51.206;3.326;2022-10-16T02:22:32;14.00;99.90
44990;DHT22;30723;51.206;3.326;2022-10-16T02:25:02;14.10;99.90
44990;DHT22;30723;51.206;3.326;2022-10-16T02:27:38;14.10;99.90
44990;DHT22;30723;51.206;3.326;2022-10-16T02:32:48;14.10;99.90
44990;DHT22;30723;51.206;3.326;2022-10-16T02:35:20;14.10;99.90
44990;DHT22;30723;51.206;3.326;2022-10-16T02:37:48;14.10;99.90
44990;DHT22;30723;51.206;3.326;2022-10-16T02:40:15;14.10;99.90
44990;DHT22;30723;51.206;3.326;2022-10-16T02:42:41;14.10;99.90
44990;DHT22;30723;51.206;3.326;2022-10-16T02:45:08;14.10;99.90
44990;DHT22;30723;51.206;3.326;2022-10-16T02:47:34;14.00;99.90
44990;DHT22;30723;51.206;3.326;2022-10-16T02:50:00;14.00;99.90
44990;DHT22;30723;51.206;3.326;2022-10-16T02:52:26;14.00;99.90
44990;DHT22;30723;51.206;3.326;2022-10-16T02:54:52;13.90;99.90
44990;DHT22;30723;51.206;3.326;2022-10-16T02:57:18;13.90;99.90
44990;DHT22;30723;51.206;3.326;2022-10-16T02:59:44;13.90;99.90
44990;DHT22;30723;51.206;3.326;2022-10-16T03:02:10;14.00;99.90
44990;DHT22;30723;51.206;3.326;2022-10-16T03:04:37;14.00;99.90
44990;DHT22;30723;51.206;3.326;2022-10-16T03:07:03;13.90;99.90
44990;DHT22;30723;51.206;3.326;2022-10-16T03:09:28;13.90;99.90
44990;DHT22;30723;51.206;3.326;2022-10-16T03:11:54;13.90;99.90
44990;DHT22;30723;51.206;3.326;2022-10-16T03:14:20;13.90;99.90
44990;DHT22;30723;51.206;3.326;2022-10-16T03:16:46;13.90;99.90
44990;DHT22;30723;51.206;3.326;2022-10-16T03:19:11;13.90;99.90
44990;DHT22;30723;51.206;3.326;2022-10-16T03:21:37;13.90;99.90
44990;DHT22;30723;51.206;3.326;2022-10-16T03:24:03;13.90;99.90
44990;DHT22;30723;51.206;3.326;2022-10-16T03:26:29;13.90;99.90
44990;DHT22;30723;51.206;3.326;2022-10-16T03:28:55;13.90;99.90
44990;DHT22;30723;51.206;3.326;2022-10-16T03:31:20;13.90;99.90
44990;DHT22;30723;51.206;3.326;2022-10-16T03:33:46;13.90;99.90
44990;DHT22;30723;51.206;3.326;2022-10-16T03:36:12;13.90;99.90
44990;DHT22;30723;51.206;3.326;2022-10-16T03:38:38;13.80;99.90
44990;DHT22;30723;51.206;3.326;2022-10-16T03:41:03;13.80;99.90
44990;DHT22;30723;51.206;3.326;2022-10-16T03:43:29;13.70;99.90
44990;DHT22;30723;51.206;3.326;2022-10-16T03:45:55;13.80;99.90
44990;DHT22;30723;51.206;3.326;2022-10-16T03:48:21;13.80;99.90
44990;DHT22;30723;51.206;3.326;2022-10-16T03:50:46;13.80;99.90
44990;DHT22;30723;51.206;3.326;2022-10-16T03:53:14;13.80;99.90
44990;DHT22;30723;51.206;3.326;2022-10-16T03:55:43;13.80;99.90
44990;DHT22;30723;51.206;3.326;2022-10-16T03:58:09;13.70;99.90
44990;DHT22;30723;51.206;3.326;2022-10-16T04:00:35;13.70;99.90
44990;DHT22;30723;51.206;3.326;2022-10-16T04:03:01;13.70;99.90
44990;DHT22;30723;51.206;3.326;2022-10-16T04:05:26;13.70;99.90
44990;DHT22;30723;51.206;3.326;2022-10-16T04:07:52;13.70;99.90
44990;DHT22;30723;51.206;3.326;2022-10-16T04:10:18;13.70;99.90
44990;DHT22;30723;51.206;3.326;2022-10-16T04:12:44;13.70;99.90
44990;DHT22;30723;51.206;3.326;2022-10-16T04:15:10;13.80;99.90
44990;DHT22;30723;51.206;3.326;2022-10-16T04:17:36;13.80;99.90
44990;DHT22;30723;51.206;3.326;2022-10-16T04:20:02;13.80;99.90
44990;DHT22;30723;51.206;3.326;2022-10-16T04:22:28;13.90;99.90
44990;DHT22;30723;51.206;3.326;2022-10-16T04:24:53;13.90;99.90
44990;DHT22;30723;51.206;3.326;2022-10-16T04:27:19;13.90;99.90
44990;DHT22;30723;51.206;3.326;2022-10-16T04:29:45;13.90;99.90
44990;DHT22;30723;51.206;3.326;2022-10-16T04:32:11;13.90;99.90
44990;DHT22;30723;51.206;3.326;2022-10-16T04:34:38;13.80;99.90
44990;DHT22;30723;51.206;3.326;2022-10-16T04:37:04;13.80;99.90
44990;DHT22;30723;51.206;3.326;2022-10-16T04:39:30;13.80;99.90
44990;DHT22;30723;51.206;3.326;2022-10-16T04:41:56;13.70;99.90
44990;DHT22;30723;51.206;3.326;2022-10-16T04:44:22;13.70;99.90
44990;DHT22;30723;51.206;3.326;2022-10-16T04:46:50;13.70;99.90
44990;DHT22;30723;51.206;3.326;2022-10-16T04:49:16;13.70;99.90
44990;DHT22;30723;51.206;3.326;2022-10-16T04:51:42;13.70;99.90
44990;DHT22;30723;51.206;3.326;2022-10-16T04:54:09;13.70;99.90
44990;DHT22;30723;51.206;3.326;2022-10-16T04:56:34;13.60;99.90
44990;DHT22;30723;51.206;3.326;2022-10-16T04:59:05;13.60;99.90
44990;DHT22;30723;51.206;3.326;2022-10-16T05:01:31;13.80;99.90
44990;DHT22;30723;51.206;3.326;2022-10-16T05:03:57;13.80;99.90
44990;DHT22;30723;51.206;3.326;2022-10-16T05:06:22;13.80;99.90
44990;DHT22;30723;51.206;3.326;2022-10-16T05:08:48;13.80;99.90
44990;DHT22;30723;51.206;3.326;2022-10-16T05:11:14;13.70;99.90
44990;DHT22;30723;51.206;3.326;2022-10-16T05:13:39;13.70;99.90
44990;DHT22;30723;51.206;3.326;2022-10-16T05:16:05;13.60;99.90
44990;DHT22;30723;51.206;3.326;2022-10-16T05:18:31;13.80;99.90
44990;DHT22;30723;51.206;3.326;2022-10-16T05:20:57;13.70;99.90
44990;DHT22;30723;51.206;3.326;2022-10-16T05:23:23;13.80;99.90
44990;DHT22;30723;51.206;3.326;2022-10-16T05:25:53;13.80;99.90
44990;DHT22;30723;51.206;3.326;2022-10-16T05:28:20;13.80;99.90
44990;DHT22;30723;51.206;3.326;2022-10-16T05:30:45;13.90;99.90
44990;DHT22;30723;51.206;3.326;2022-10-16T05:33:11;14.00;99.90
44990;DHT22;30723;51.206;3.326;2022-10-16T05:35:37;14.00;99.90
44990;DHT22;30723;51.206;3.326;2022-10-16T05:38:03;14.00;99.90
44990;DHT22;30723;51.206;3.326;2022-10-16T05:40:28;14.10;99.90
44990;DHT22;30723;51.206;3.326;2022-10-16T05:42:57;14.10;99.90
44990;DHT22;30723;51.206;3.326;2022-10-16T05:45:23;14.00;99.90
44990;DHT22;30723;51.206;3.326;2022-10-16T05:47:48;14.00;99.90
44990;DHT22;30723;51.206;3.326;2022-10-16T05:50:14;14.00;99.90
44990;DHT22;30723;51.206;3.326;2022-10-16T05:52:40;14.00;99.90
44990;DHT22;30723;51.206;3.326;2022-10-16T05:55:06;14.00;99.90
44990;DHT22;30723;51.206;3.326;2022-10-16T05:57:32;14.10;99.90
44990;DHT22;30723;51.206;3.326;2022-10-16T05:59:58;14.00;99.90
44990;DHT22;30723;51.206;3.326;2022-10-16T06:02:23;13.90;99.90
44990;DHT22;30723;51.206;3.326;2022-10-16T06:04:51;13.90;99.90
44990;DHT22;30723;51.206;3.326;2022-10-16T06:07:16;13.90;99.90
44990;DHT22;30723;51.206;3.326;2022-10-16T06:09:42;13.80;99.90
44990;DHT22;30723;51.206;3.326;2022-10-16T06:12:08;13.80;99.90
44990;DHT22;30723;51.206;3.326;2022-10-16T06:14:33;13.80;99.90
44990;DHT22;30723;51.206;3.326;2022-10-16T06:16:59;13.80;99.90
44990;DHT22;30723;51.206;3.326;2022-10-16T06:19:25;13.80;99.90
44990;DHT22;30723;51.206;3.326;2022-10-16T06:21:51;13.80;99.90
44990;DHT22;30723;51.206;3.326;2022-10-16T06:24:17;13.80;99.90
44990;DHT22;30723;51.206;3.326;2022-10-16T06:26:42;13.80;99.90
44990;DHT22;30723;51.206;3.326;2022-10-16T06:29:08;13.80;99.90
44990;DHT22;30723;51.206;3.326;2022-10-16T06:31:34;13.80;99.90
44990;DHT22;30723;51.206;3.326;2022-10-16T06:34:00;13.80;99.90
44990;DHT22;30723;51.206;3.326;2022-10-16T06:36:26;13.80;99.90
44990;DHT22;30723;51.206;3.326;2022-10-16T06:38:52;13.80;99.90
44990;DHT22;30723;51.206;3.326;2022-10-16T06:41:20;13.80;99.90
44990;DHT22;30723;51.206;3.326;2022-10-16T06:43:47;13.80;99.90
44990;DHT22;30723;51.206;3.326;2022-10-16T06:46:15;13.80;99.90
44990;DHT22;30723;51.206;3.326;2022-10-16T06:48:41;13.80;99.90
44990;DHT22;30723;51.206;3.326;2022-10-16T06:51:13;13.80;99.90
44990;DHT22;30723;51.206;3.326;2022-10-16T06:53:41;13.80;99.90
44990;DHT22;30723;51.206;3.326;2022-10-16T06:56:13;13.80;99.90
44990;DHT22;30723;51.206;3.326;2022-10-16T06:58:39;13.80;99.90
44990;DHT22;30723;51.206;3.326;2022-10-16T07:01:05;13.70;99.90
44990;DHT22;30723;51.206;3.326;2022-10-16T07:03:31;13.70;99.90
44990;DHT22;30723;51.206;3.326;2022-10-16T07:06:02;13.70;99.90
44990;DHT22;30723;51.206;3.326;2022-10-16T07:08:30;13.80;99.90
44990;DHT22;30723;51.206;3.326;2022-10-16T07:11:07;13.80;99.90
44990;DHT22;30723;51.206;3.326;2022-10-16T07:13:35;13.90;99.90
44990;DHT22;30723;51.206;3.326;2022-10-16T07:18:34;14.00;99.90
44990;DHT22;30723;51.206;3.326;2022-10-16T07:21:15;14.00;99.90
44990;DHT22;30723;51.206;3.326;2022-10-16T07:23:41;14.00;99.90
44990;DHT22;30723;51.206;3.326;2022-10-16T07:26:08;14.00;99.90
44990;DHT22;30723;51.206;3.326;2022-10-16T07:28:35;14.00;99.90
44990;DHT22;30723;51.206;3.326;2022-10-16T07:31:06;14.10;99.90
44990;DHT22;30723;51.206;3.326;2022-10-16T07:33:33;14.10;99.90
44990;DHT22;30723;51.206;3.326;2022-10-16T07:36:00;14.10;99.90
44990;DHT22;30723;51.206;3.326;2022-10-16T07:38:26;14.10;99.90
44990;DHT22;30723;51.206;3.326;2022-10-16T07:41:03;14.20;99.90
44990;DHT22;30723;51.206;3.326;2022-10-16T07:43:29;14.20;99.90
44990;DHT22;30723;51.206;3.326;2022-10-16T07:45:55;14.30;99.90
44990;DHT22;30723;51.206;3.326;2022-10-16T07:48:22;14.40;99.90
44990;DHT22;30723;51.206;3.326;2022-10-16T07:50:48;14.50;99.90
44990;DHT22;30723;51.206;3.326;2022-10-16T07:53:14;14.50;99.90
44990;DHT22;30723;51.206;3.326;2022-10-16T07:55:40;14.50;99.90
44990;DHT22;30723;51.206;3.326;2022-10-16T07:58:06;14.70;99.90
44990;DHT22;30723;51.206;3.326;2022-10-16T08:00:32;14.60;99.90
44990;DHT22;30723;51.206;3.326;2022-10-16T08:02:59;14.70;99.90
44990;DHT22;30723;51.206;3.326;2022-10-16T08:05:29;14.70;99.90
44990;DHT22;30723;51.206;3.326;2022-10-16T08:07:55;14.80;99.90
44990;DHT22;30723;51.206;3.326;2022-10-16T08:10:23;14.80;99.90
44990;DHT22;30723;51.206;3.326;2022-10-16T08:12:50;14.90;99.90
44990;DHT22;30723;51.206;3.326;2022-10-16T08:15:17;14.80;99.90
44990;DHT22;30723;51.206;3.326;2022-10-16T08:17:43;14.80;99.90
44990;DHT22;30723;51.206;3.326;2022-10-16T08:20:10;14.90;99.90
44990;DHT22;30723;51.206;3.326;2022-10-16T08:22:36;15.00;99.90
44990;DHT22;30723;51.206;3.326;2022-10-16T08:25:02;15.20;99.90
44990;DHT22;30723;51.206;3.326;2022-10-16T08:27:32;15.10;99.90
44990;DHT22;30723;51.206;3.326;2022-10-16T08:29:58;15.20;99.90
44990;DHT22;30723;51.206;3.326;2022-10-16T08:32:23;15.30;99.90
44990;DHT22;30723;51.206;3.326;2022-10-16T08:34:49;15.30;99.90
44990;DHT22;30723;51.206;3.326;2022-10-16T08:37:15;15.40;99.90
44990;DHT22;30723;51.206;3.326;2022-10-16T08:39:40;15.40;99.90
44990;DHT22;30723;51.206;3.326;2022-10-16T08:48:04;15.80;99.90
44990;DHT22;30723;51.206;3.326;2022-10-16T08:50:32;15.80;99.90
44990;DHT22;30723;51.206;3.326;2022-10-16T08:53:04;15.80;99.90
44990;DHT22;30723;51.206;3.326;2022-10-16T08:55:37;15.90;99.90
44990;DHT22;30723;51.206;3.326;2022-10-16T08:58:12;16.10;99.90
44990;DHT22;30723;51.206;3.326;2022-10-16T09:00:38;16.20;99.90
44990;DHT22;30723;51.206;3.326;2022-10-16T09:06:04;16.70;99.90
44990;DHT22;30723;51.206;3.326;2022-10-16T09:09:38;16.90;99.90
44990;DHT22;30723;51.206;3.326;2022-10-16T09:17:40;17.50;99.90
44990;DHT22;30723;51.206;3.326;2022-10-16T09:26:12;17.80;99.90
44990;DHT22;30723;51.206;3.326;2022-10-16T09:28:38;17.80;99.90
44990;DHT22;30723;51.206;3.326;2022-10-16T09:31:04;17.80;99.90
44990;DHT22;30723;51.206;3.326;2022-10-16T09:33:36;17.80;99.90
44990;DHT22;30723;51.206;3.326;2022-10-16T09:36:05;18.00;99.90
44990;DHT22;30723;51.206;3.326;2022-10-16T09:38:34;17.90;99.90
44990;DHT22;30723;51.206;3.326;2022-10-16T09:41:03;17.90;99.90
44990;DHT22;30723;51.206;3.326;2022-10-16T09:43:54;18.00;99.90
44990;DHT22;30723;51.206;3.326;2022-10-16T09:49:25;17.90;99.90
44990;DHT22;30723;51.206;3.326;2022-10-16T09:51:51;17.80;99.90
44990;DHT22;30723;51.206;3.326;2022-10-16T09:54:28;17.80;99.90
44990;DHT22;30723;51.206;3.326;2022-10-16T09:57:04;17.90;99.90
44990;DHT22;30723;51.206;3.326;2022-10-16T09:59:31;18.00;99.90
44990;DHT22;30723;51.206;3.326;2022-10-16T10:02:02;18.00;99.90
44990;DHT22;30723;51.206;3.326;2022-10-16T10:04:38;18.00;99.90
44990;DHT22;30723;51.206;3.326;2022-10-16T10:07:06;18.20;99.90
44990;DHT22;30723;51.206;3.326;2022-10-16T10:09:39;18.60;99.90
44990;DHT22;30723;51.206;3.326;2022-10-16T10:12:06;19.40;99.90
44990;DHT22;30723;51.206;3.326;2022-10-16T10:14:46;20.80;99.90
44990;DHT22;30723;51.206;3.326;2022-10-16T10:17:21;22.20;99.90
44990;DHT22;30723;51.206;3.326;2022-10-16T10:19:52;23.20;99.90
44990;DHT22;30723;51.206;3.326;2022-10-16T10:30:19;25.10;99.90
44990;DHT22;30723;51.206;3.326;2022-10-16T10:36:03;27.00;99.90
44990;DHT22;30723;51.206;3.326;2022-10-16T10:43:49;29.70;98.40
44990;DHT22;30723;51.206;3.326;2022-10-16T10:46:44;29.90;95.80
44990;DHT22;30723;51.206;3.326;2022-10-16T10:57:07;29.50;92.30
44990;DHT22;30723;51.206;3.326;2022-10-16T11:00:04;28.30;93.50
44990;DHT22;30723;51.206;3.326;2022-10-16T11:02:38;26.80;94.90
44990;DHT22;30723;51.206;3.326;2022-10-16T11:05:40;25.30;97.20
44990;DHT22;30723;51.206;3.326;2022-10-16T11:10:58;23.50;99.90
44990;DHT22;30723;51.206;3.326;2022-10-16T11:13:30;22.90;99.90
44990;DHT22;30723;51.206;3.326;2022-10-16T11:16:01;22.70;99.90
44990;DHT22;30723;51.206;3.326;2022-10-16T11:21:11;22.00;99.90
44990;DHT22;30723;51.206;3.326;2022-10-16T11:23:43;21.80;99.90
44990;DHT22;30723;51.206;3.326;2022-10-16T11:26:19;21.80;99.90
44990;DHT22;30723;51.206;3.326;2022-10-16T11:28:49;22.70;99.90
44990;DHT22;30723;51.206;3.326;2022-10-16T11:31:32;24.60;99.90
44990;DHT22;30723;51.206;3.326;2022-10-16T11:36:57;28.40;97.20
44990;DHT22;30723;51.206;3.326;2022-10-16T11:39:29;29.00;95.10
44990;DHT22;30723;51.206;3.326;2022-10-16T11:42:02;29.20;93.20
44990;DHT22;30723;51.206;3.326;2022-10-16T11:47:44;28.80;91.80
44990;DHT22;30723;51.206;3.326;2022-10-16T11:50:19;27.80;92.70
44990;DHT22;30723;51.206;3.326;2022-10-16T11:55:42;26.30;94.90
44990;DHT22;30723;51.206;3.326;2022-10-16T11:58:37;25.20;95.80
44990;DHT22;30723;51.206;3.326;2022-10-16T12:03:46;25.70;98.60
44990;DHT22;30723;51.206;3.326;2022-10-16T12:09:25;29.10;93.90
44990;DHT22;30723;51.206;3.326;2022-10-16T12:11:52;29.90;91.50
44990;DHT22;30723;51.206;3.326;2022-10-16T12:17:49;31.30;87.20
44990;DHT22;30723;51.206;3.326;2022-10-16T12:22:56;32.30;80.70
44990;DHT22;30723;51.206;3.326;2022-10-16T12:28:05;32.40;76.90
44990;DHT22;30723;51.206;3.326;2022-10-16T12:30:34;32.00;77.90
44990;DHT22;30723;51.206;3.326;2022-10-16T12:33:05;32.00;76.90
44990;DHT22;30723;51.206;3.326;2022-10-16T12:35:43;31.10;76.80
44990;DHT22;30723;51.206;3.326;2022-10-16T12:38:49;30.30;78.70
44990;DHT22;30723;51.206;3.326;2022-10-16T12:41:25;28.80;81.80
44990;DHT22;30723;51.206;3.326;2022-10-16T12:43:52;27.50;84.90
44990;DHT22;30723;51.206;3.326;2022-10-16T12:48:44;26.00;90.50
44990;DHT22;30723;51.206;3.326;2022-10-16T12:51:11;26.10;91.60
44990;DHT22;30723;51.206;3.326;2022-10-16T12:53:37;26.20;91.20
44990;DHT22;30723;51.206;3.326;2022-10-16T12:56:24;26.50;91.30
44990;DHT22;30723;51.206;3.326;2022-10-16T13:06:49;28.40;88.40
44990;DHT22;30723;51.206;3.326;2022-10-16T13:22:39;26.40;90.00
44990;DHT22;30723;51.206;3.326;2022-10-16T13:30:22;25.10;92.30
44990;DHT22;30723;51.206;3.326;2022-10-16T13:32:52;24.80;93.20
44990;DHT22;30723;51.206;3.326;2022-10-16T13:35:24;24.40;93.70
44990;DHT22;30723;51.206;3.326;2022-10-16T13:37:50;24.30;94.00
44990;DHT22;30723;51.206;3.326;2022-10-16T13:40:24;24.20;95.30
44990;DHT22;30723;51.206;3.326;2022-10-16T13:42:51;24.10;94.70
44990;DHT22;30723;51.206;3.326;2022-10-16T13:45:24;24.10;94.70
44990;DHT22;30723;51.206;3.326;2022-10-16T13:48:02;24.20;94.70
44990;DHT22;30723;51.206;3.326;2022-10-16T13:50:27;24.00;94.40
44990;DHT22;30723;51.206;3.326;2022-10-16T13:53:04;23.90;94.50
44990;DHT22;30723;51.206;3.326;2022-10-16T13:55:31;23.90;94.90
44990;DHT22;30723;51.206;3.326;2022-10-16T13:58:14;23.80;95.40
44990;DHT22;30723;51.206;3.326;2022-10-16T14:00:41;23.60;96.20
44990;DHT22;30723;51.206;3.326;2022-10-16T14:03:19;23.20;97.50
44990;DHT22;30723;51.206;3.326;2022-10-16T14:05:53;23.00;98.40
44990;DHT22;30723;51.206;3.326;2022-10-16T14:08:21;22.70;99.10
44990;DHT22;30723;51.206;3.326;2022-10-16T14:10:56;22.60;99.20
44990;DHT22;30723;51.206;3.326;2022-10-16T14:13:43;22.40;99.90
44990;DHT22;30723;51.206;3.326;2022-10-16T14:16:16;22.30;99.90
44990;DHT22;30723;51.206;3.326;2022-10-16T14:18:46;22.20;99.90
44990;DHT22;30723;51.206;3.326;2022-10-16T14:21:16;22.50;99.90
44990;DHT22;30723;51.206;3.326;2022-10-16T14:23:42;22.60;99.90
44990;DHT22;30723;51.206;3.326;2022-10-16T14:28:37;22.40;99.90
44990;DHT22;30723;51.206;3.326;2022-10-16T14:31:37;22.30;99.90
44990;DHT22;30723;51.206;3.326;2022-10-16T14:34:32;22.10;99.90
44990;DHT22;30723;51.206;3.326;2022-10-16T14:39:41;21.50;99.90
44990;DHT22;30723;51.206;3.326;2022-10-16T14:42:21;21.40;99.90
44990;DHT22;30723;51.206;3.326;2022-10-16T14:44:51;21.30;99.90
44990;DHT22;30723;51.206;3.326;2022-10-16T14:47:22;21.20;99.90
44990;DHT22;30723;51.206;3.326;2022-10-16T14:49:52;21.10;99.90
44990;DHT22;30723;51.206;3.326;2022-10-16T14:52:20;21.00;99.90
44990;DHT22;30723;51.206;3.326;2022-10-16T14:54:49;20.70;99.90
44990;DHT22;30723;51.206;3.326;2022-10-16T14:57:20;20.60;99.90
44990;DHT22;30723;51.206;3.326;2022-10-16T14:59:46;20.50;99.90
44990;DHT22;30723;51.206;3.326;2022-10-16T15:04:41;20.30;99.90
44990;DHT22;30723;51.206;3.326;2022-10-16T15:07:08;20.20;99.90
44990;DHT22;30723;51.206;3.326;2022-10-16T15:09:33;20.20;99.90
44990;DHT22;30723;51.206;3.326;2022-10-16T15:11:59;20.10;99.90
44990;DHT22;30723;51.206;3.326;2022-10-16T15:14:25;20.20;99.90
44990;DHT22;30723;51.206;3.326;2022-10-16T15:16:51;20.00;99.90
44990;DHT22;30723;51.206;3.326;2022-10-16T15:19:16;20.00;99.90
44990;DHT22;30723;51.206;3.326;2022-10-16T15:21:42;19.80;99.90
44990;DHT22;30723;51.206;3.326;2022-10-16T15:24:12;19.80;99.90
44990;DHT22;30723;51.206;3.326;2022-10-16T15:26:38;19.60;99.90
44990;DHT22;30723;51.206;3.326;2022-10-16T15:29:04;19.60;99.90
44990;DHT22;30723;51.206;3.326;2022-10-16T15:31:30;19.60;99.90
44990;DHT22;30723;51.206;3.326;2022-10-16T15:33:56;19.40;99.90
44990;DHT22;30723;51.206;3.326;2022-10-16T15:36:34;19.40;99.90
44990;DHT22;30723;51.206;3.326;2022-10-16T15:39:17;19.40;99.90
44990;DHT22;30723;51.206;3.326;2022-10-16T15:41:45;19.30;99.90
44990;DHT22;30723;51.206;3.326;2022-10-16T15:44:16;19.30;99.90
44990;DHT22;30723;51.206;3.326;2022-10-16T15:46:43;19.20;99.90
44990;DHT22;30723;51.206;3.326;2022-10-16T15:49:09;19.20;99.90
44990;DHT22;30723;51.206;3.326;2022-10-16T15:51:38;19.20;99.90
44990;DHT22;30723;51.206;3.326;2022-10-16T15:54:04;19.10;99.90
44990;DHT22;30723;51.206;3.326;2022-10-16T15:56:30;19.00;99.90
44990;DHT22;30723;51.206;3.326;2022-10-16T15:58:59;19.00;99.90
44990;DHT22;30723;51.206;3.326;2022-10-16T16:01:26;19.00;99.90
44990;DHT22;30723;51.206;3.326;2022-10-16T16:03:55;19.00;99.90
44990;DHT22;30723;51.206;3.326;2022-10-16T16:06:22;18.90;99.90
44990;DHT22;30723;51.206;3.326;2022-10-16T16:08:50;18.80;99.90
44990;DHT22;30723;51.206;3.326;2022-10-16T16:11:16;18.70;99.90
44990;DHT22;30723;51.206;3.326;2022-10-16T16:13:43;18.70;99.90
44990;DHT22;30723;51.206;3.326;2022-10-16T16:16:11;18.60;99.90
44990;DHT22;30723;51.206;3.326;2022-10-16T16:18:38;18.60;99.90
44990;DHT22;30723;51.206;3.326;2022-10-16T16:21:04;18.60;99.90
44990;DHT22;30723;51.206;3.326;2022-10-16T16:23:31;18.60;99.90
44990;DHT22;30723;51.206;3.326;2022-10-16T16:26:14;18.60;99.90
44990;DHT22;30723;51.206;3.326;2022-10-16T16:28:42;18.50;99.90
44990;DHT22;30723;51.206;3.326;2022-10-16T16:31:08;18.50;99.90
44990;DHT22;30723;51.206;3.326;2022-10-16T16:33:34;18.50;99.90
44990;DHT22;30723;51.206;3.326;2022-10-16T16:36:02;18.50;99.90
44990;DHT22;30723;51.206;3.326;2022-10-16T16:38:29;18.40;99.90
44990;DHT22;30723;51.206;3.326;2022-10-16T16:40:55;18.30;99.90
44990;DHT22;30723;51.206;3.326;2022-10-16T16:43:25;18.20;99.90
44990;DHT22;30723;51.206;3.326;2022-10-16T16:45:51;18.10;99.90
44990;DHT22;30723;51.206;3.326;2022-10-16T16:48:18;18.10;99.90
44990;DHT22;30723;51.206;3.326;2022-10-16T16:50:44;18.00;99.90
44990;DHT22;30723;51.206;3.326;2022-10-16T16:53:09;17.90;99.90
44990;DHT22;30723;51.206;3.326;2022-10-16T16:55:35;17.90;99.90
44990;DHT22;30723;51.206;3.326;2022-10-16T16:58:01;17.90;99.90
44990;DHT22;30723;51.206;3.326;2022-10-16T17:00:28;17.80;99.90
44990;DHT22;30723;51.206;3.326;2022-10-16T17:02:54;17.70;99.90
44990;DHT22;30723;51.206;3.326;2022-10-16T17:05:19;17.60;99.90
44990;DHT22;30723;51.206;3.326;2022-10-16T17:07:45;17.70;99.90
44990;DHT22;30723;51.206;3.326;2022-10-16T17:10:11;17.50;99.90
44990;DHT22;30723;51.206;3.326;2022-10-16T17:12:37;17.40;99.90
44990;DHT22;30723;51.206;3.326;2022-10-16T17:15:02;17.20;99.90
44990;DHT22;30723;51.206;3.326;2022-10-16T17:17:28;17.10;99.90
44990;DHT22;30723;51.206;3.326;2022-10-16T17:19:54;17.10;99.90
44990;DHT22;30723;51.206;3.326;2022-10-16T17:22:20;17.00;99.90
44990;DHT22;30723;51.206;3.326;2022-10-16T17:24:49;16.90;99.90
44990;DHT22;30723;51.206;3.326;2022-10-16T17:27:17;16.90;99.90
44990;DHT22;30723;51.206;3.326;2022-10-16T17:29:43;16.80;99.90
44990;DHT22;30723;51.206;3.326;2022-10-16T17:32:09;16.80;99.90
44990;DHT22;30723;51.206;3.326;2022-10-16T17:34:36;16.70;99.90
44990;DHT22;30723;51.206;3.326;2022-10-16T17:37:02;16.70;99.90
44990;DHT22;30723;51.206;3.326;2022-10-16T17:39:28;16.70;99.90
44990;DHT22;30723;51.206;3.326;2022-10-16T17:41:54;16.70;99.90
44990;DHT22;30723;51.206;3.326;2022-10-16T17:44:20;16.70;99.90
44990;DHT22;30723;51.206;3.326;2022-10-16T17:46:51;16.70;99.90
44990;DHT22;30723;51.206;3.326;2022-10-16T17:49:17;16.60;99.90
44990;DHT22;30723;51.206;3.326;2022-10-16T17:51:43;16.60;99.90
44990;DHT22;30723;51.206;3.326;2022-10-16T17:54:11;16.50;99.90
44990;DHT22;30723;51.206;3.326;2022-10-16T17:56:39;16.50;99.90
44990;DHT22;30723;51.206;3.326;2022-10-16T17:59:05;16.40;99.90
44990;DHT22;30723;51.206;3.326;2022-10-16T18:01:36;16.50;99.90
44990;DHT22;30723;51.206;3.326;2022-10-16T18:04:10;16.50;99.90